Time;durP1;ratioP1;P1;durP2;ratioP2;P2;SDS_P1;SDS_P2;PMS_P1;PMS_P2;Temp;Humidity;BMP_temperature;BMP_pressure;BME280_temperature;BME280_humidity;BME280_pressure;Samples;Min_cycle;Max_cycle;Signal;HPM_P1;HPM_P2
2022/10/23 00:00:56;;;;;;;12.55;7.93;;;;;;;;;;5026908;28;20040;-65
2022/10/23 00:03:22;;;;;;;14.57;9.40;;;;;;;;;;5028186;28;20046;-64
2022/10/23 00:05:49;;;;;;;13.95;8.10;;;;;;;;;;5028198;28;20041;-64
2022/10/23 00:08:15;;;;;;;15.20;7.45;;;;;;;;;;5026948;28;20506;-64
2022/10/23 00:10:43;;;;;;;12.07;6.90;;;;;;;;;;5024756;28;20576;-64
2022/10/23 00:13:10;;;;;;;13.52;8.02;;;;;;;;;;5027374;28;20037;-64
2022/10/23 00:15:36;;;;;;;12.73;8.05;;;;;;;;;;5026545;28;20045;-64
2022/10/23 00:18:04;;;;;;;10.82;6.68;;;;;;;;;;5028189;28;20693;-64
2022/10/23 00:20:30;;;;;;;10.32;6.63;;;;;;;;;;5025412;28;20122;-65
2022/10/23 00:22:57;;;;;;;8.55;4.70;;;;;;;;;;5028475;28;20099;-66
2022/10/23 00:25:24;;;;;;;15.13;8.45;;;;;;;;;;5027672;28;20390;-63
2022/10/23 00:27:50;;;;;;;12.32;7.22;;;;;;;;;;5028602;28;20045;-63
2022/10/23 00:30:17;;;;;;;17.10;8.80;;;;;;;;;;5029901;28;20057;-66
2022/10/23 00:32:44;;;;;;;14.57;8.38;;;;;;;;;;5028777;28;20945;-64
2022/10/23 00:35:10;;;;;;;14.32;8.77;;;;;;;;;;5027655;28;20040;-67
2022/10/23 00:37:37;;;;;;;18.75;10.43;;;;;;;;;;5027705;28;20183;-65
2022/10/23 00:40:04;;;;;;;14.50;9.27;;;;;;;;;;5026875;28;20043;-65
2022/10/23 00:42:31;;;;;;;14.13;7.97;;;;;;;;;;5025414;28;20067;-66
2022/10/23 00:45:15;;;;;;;14.77;9.20;;;;;;;;;;5027957;28;20041;-65
2022/10/23 00:47:42;;;;;;;15.65;9.70;;;;;;;;;;5026505;28;20592;-64
2022/10/23 00:50:08;;;;;;;19.23;11.02;;;;;;;;;;5026833;28;20052;-64
2022/10/23 00:52:37;;;;;;;17.75;10.88;;;;;;;;;;5027277;28;20091;-65
2022/10/23 00:55:04;;;;;;;17.17;10.35;;;;;;;;;;5027412;28;20056;-64
2022/10/23 00:57:30;;;;;;;14.68;8.95;;;;;;;;;;5026766;28;20033;-65
2022/10/23 00:59:57;;;;;;;17.45;9.77;;;;;;;;;;5027741;28;20034;-64
2022/10/23 01:02:23;;;;;;;20.02;10.18;;;;;;;;;;5026473;28;20128;-65
2022/10/23 01:04:50;;;;;;;15.52;9.98;;;;;;;;;;5027251;28;20124;-65
2022/10/23 01:07:29;;;;;;;15.13;9.05;;;;;;;;;;5026790;28;20884;-66
2022/10/23 01:10:03;;;;;;;17.98;10.32;;;;;;;;;;5027841;28;20288;-65
2022/10/23 01:12:59;;;;;;;20.73;11.75;;;;;;;;;;5024730;28;20151;-64
2022/10/23 01:15:25;;;;;;;19.38;11.45;;;;;;;;;;5019045;28;20049;-64
2022/10/23 01:17:56;;;;;;;14.20;9.05;;;;;;;;;;5028076;28;20040;-64
2022/10/23 01:20:51;;;;;;;15.88;9.88;;;;;;;;;;5026683;28;20033;-65
2022/10/23 01:23:35;;;;;;;16.08;10.27;;;;;;;;;;4995538;28;20064;-64
2022/10/23 01:26:08;;;;;;;17.17;9.45;;;;;;;;;;5032814;28;20037;-64
2022/10/23 01:28:46;;;;;;;13.80;7.40;;;;;;;;;;5025900;28;20083;-66
2022/10/23 01:31:16;;;;;;;13.93;6.85;;;;;;;;;;5025814;28;20136;-64
2022/10/23 01:33:48;;;;;;;10.38;7.30;;;;;;;;;;5027728;28;20032;-64
2022/10/23 01:36:16;;;;;;;12.93;7.00;;;;;;;;;;5042263;28;20114;-65
2022/10/23 01:38:51;;;;;;;15.07;8.85;;;;;;;;;;5045228;28;20040;-64
2022/10/23 01:41:24;;;;;;;16.23;9.40;;;;;;;;;;5043276;28;20036;-66
2022/10/23 01:44:03;;;;;;;15.32;9.73;;;;;;;;;;5044839;28;20036;-65
2022/10/23 01:46:31;;;;;;;13.90;8.30;;;;;;;;;;5043335;28;20910;-65
2022/10/23 01:48:59;;;;;;;10.80;6.78;;;;;;;;;;5045278;28;20041;-66
2022/10/23 01:51:28;;;;;;;12.68;8.25;;;;;;;;;;5044098;28;20049;-66
2022/10/23 01:53:58;;;;;;;17.65;8.20;;;;;;;;;;5047251;28;20560;-66
2022/10/23 01:56:32;;;;;;;13.00;8.38;;;;;;;;;;5044374;28;20068;-67
2022/10/23 01:59:01;;;;;;;17.27;7.95;;;;;;;;;;5051542;28;20616;-65
2022/10/23 02:01:29;;;;;;;15.02;8.65;;;;;;;;;;5049923;28;20107;-64
2022/10/23 02:03:56;;;;;;;12.85;8.18;;;;;;;;;;5046666;28;20037;-64
2022/10/23 02:06:23;;;;;;;13.20;7.97;;;;;;;;;;5046028;28;20041;-65
2022/10/23 02:08:50;;;;;;;15.40;10.27;;;;;;;;;;5044941;28;20994;-64
2022/10/23 02:11:21;;;;;;;15.68;10.30;;;;;;;;;;5047777;28;20355;-64
2022/10/23 02:13:57;;;;;;;15.48;10.30;;;;;;;;;;5050889;28;20043;-65
2022/10/23 02:16:30;;;;;;;16.52;10.60;;;;;;;;;;5049919;28;20041;-65
2022/10/23 02:18:57;;;;;;;17.20;10.77;;;;;;;;;;5050247;28;20105;-65
2022/10/23 02:21:29;;;;;;;19.88;11.60;;;;;;;;;;5047451;28;20040;-67
2022/10/23 02:24:11;;;;;;;15.93;10.90;;;;;;;;;;5055080;28;20101;-65
2022/10/23 02:26:43;;;;;;;16.70;11.52;;;;;;;;;;5048866;28;20429;-65
2022/10/23 02:29:15;;;;;;;20.45;11.88;;;;;;;;;;5047467;28;20052;-65
2022/10/23 02:31:42;;;;;;;15.77;10.10;;;;;;;;;;5048528;28;20055;-66
2022/10/23 02:34:09;;;;;;;17.15;10.18;;;;;;;;;;5049341;28;20286;-66
2022/10/23 02:36:35;;;;;;;17.13;9.95;;;;;;;;;;5048824;28;20130;-67
2022/10/23 02:39:02;;;;;;;14.35;9.57;;;;;;;;;;5050616;28;20163;-66
2022/10/23 02:41:47;;;;;;;18.02;8.60;;;;;;;;;;5048043;28;20109;-66
2022/10/23 02:44:19;;;;;;;15.50;9.73;;;;;;;;;;5047777;28;20045;-65
2022/10/23 02:46:53;;;;;;;16.73;10.13;;;;;;;;;;5048853;28;20047;-66
2022/10/23 02:49:38;;;;;;;14.10;8.38;;;;;;;;;;5049741;28;20052;-65
2022/10/23 02:52:11;;;;;;;17.40;10.85;;;;;;;;;;5047746;28;20070;-64
2022/10/23 02:54:53;;;;;;;18.85;11.00;;;;;;;;;;5046472;28;20135;-65
2022/10/23 02:57:27;;;;;;;12.75;7.18;;;;;;;;;;5072473;28;20967;-65
2022/10/23 03:00:00;;;;;;;19.58;11.25;;;;;;;;;;5049304;28;20568;-67
2022/10/23 03:02:59;;;;;;;21.95;11.23;;;;;;;;;;5048670;28;20049;-65
2022/10/23 03:05:29;;;;;;;17.45;12.07;;;;;;;;;;5019097;28;20045;-65
2022/10/23 03:07:55;;;;;;;20.67;11.25;;;;;;;;;;5053259;28;20987;-65
2022/10/23 03:10:22;;;;;;;19.23;11.13;;;;;;;;;;5047719;28;20108;-66
2022/10/23 03:12:49;;;;;;;17.52;10.40;;;;;;;;;;5040565;28;20032;-66
2022/10/23 03:15:16;;;;;;;18.85;11.20;;;;;;;;;;5049428;28;20201;-65
2022/10/23 03:17:43;;;;;;;19.40;12.45;;;;;;;;;;5046212;28;20083;-66
2022/10/23 03:20:10;;;;;;;18.20;11.20;;;;;;;;;;5046963;28;20041;-65
2022/10/23 03:22:37;;;;;;;20.45;12.77;;;;;;;;;;5046719;28;20045;-65
2022/10/23 03:25:04;;;;;;;18.35;11.35;;;;;;;;;;5045985;28;20048;-66
2022/10/23 03:27:31;;;;;;;17.88;11.45;;;;;;;;;;5047721;28;20053;-66
2022/10/23 03:29:57;;;;;;;12.35;7.20;;;;;;;;;;5045597;28;20117;-65
2022/10/23 03:32:24;;;;;;;18.70;11.25;;;;;;;;;;5047213;28;20731;-64
2022/10/23 03:34:50;;;;;;;14.02;8.73;;;;;;;;;;5048956;28;20040;-65
2022/10/23 03:37:17;;;;;;;18.10;10.73;;;;;;;;;;5048440;28;20037;-64
2022/10/23 03:39:44;;;;;;;10.02;5.57;;;;;;;;;;5047185;28;20041;-65
2022/10/23 03:42:10;;;;;;;14.30;8.23;;;;;;;;;;5046690;28;20043;-64
2022/10/23 03:44:37;;;;;;;19.13;10.88;;;;;;;;;;5047389;28;20051;-63
2022/10/23 03:47:04;;;;;;;16.20;9.48;;;;;;;;;;5047521;28;20037;-63
2022/10/23 03:49:30;;;;;;;14.30;8.00;;;;;;;;;;5046394;28;20044;-64
2022/10/23 03:51:58;;;;;;;15.68;8.75;;;;;;;;;;5051775;28;20116;-63
2022/10/23 03:54:26;;;;;;;15.43;9.93;;;;;;;;;;5046149;28;20073;-64
2022/10/23 03:56:54;;;;;;;12.15;7.05;;;;;;;;;;5047347;28;20734;-64
2022/10/23 03:59:20;;;;;;;16.67;8.35;;;;;;;;;;5046860;28;20064;-64
2022/10/23 04:01:47;;;;;;;13.10;7.75;;;;;;;;;;5046643;28;20040;-64
2022/10/23 04:04:14;;;;;;;17.05;11.35;;;;;;;;;;5044878;28;21033;-64
2022/10/23 04:06:40;;;;;;;16.88;10.07;;;;;;;;;;5044954;28;20736;-64
2022/10/23 04:09:07;;;;;;;17.88;9.60;;;;;;;;;;5047272;28;20841;-64
2022/10/23 04:11:34;;;;;;;16.90;10.35;;;;;;;;;;5043468;28;20037;-65
2022/10/23 04:14:00;;;;;;;17.20;9.68;;;;;;;;;;5044239;28;20032;-64
2022/10/23 04:16:27;;;;;;;11.55;7.00;;;;;;;;;;5044520;28;20047;-66
2022/10/23 04:18:54;;;;;;;12.45;7.82;;;;;;;;;;5045226;28;20067;-65
2022/10/23 04:21:20;;;;;;;20.77;12.60;;;;;;;;;;5045264;28;20043;-65
2022/10/23 04:23:47;;;;;;;18.95;11.63;;;;;;;;;;5046222;28;20597;-67
2022/10/23 04:26:13;;;;;;;17.92;11.23;;;;;;;;;;5047550;28;20405;-65
2022/10/23 04:28:40;;;;;;;19.05;10.77;;;;;;;;;;5046486;28;20168;-64
2022/10/23 04:31:07;;;;;;;20.25;11.45;;;;;;;;;;5046323;28;20041;-66
2022/10/23 04:33:33;;;;;;;20.38;10.65;;;;;;;;;;5044960;28;21149;-65
2022/10/23 04:36:00;;;;;;;18.90;11.95;;;;;;;;;;5045393;28;20105;-65
2022/10/23 04:38:27;;;;;;;17.38;10.50;;;;;;;;;;5044876;28;20071;-64
2022/10/23 04:40:53;;;;;;;15.38;9.10;;;;;;;;;;5044770;28;20032;-64
2022/10/23 04:43:20;;;;;;;16.77;11.23;;;;;;;;;;5044923;28;20461;-64
2022/10/23 04:45:48;;;;;;;16.52;10.85;;;;;;;;;;5024981;28;20456;-66
2022/10/23 04:48:15;;;;;;;18.40;11.35;;;;;;;;;;5043142;28;20056;-65
2022/10/23 04:50:41;;;;;;;17.20;11.60;;;;;;;;;;5032392;28;20040;-64
2022/10/23 04:53:08;;;;;;;19.77;11.75;;;;;;;;;;5026358;28;20513;-65
2022/10/23 04:55:35;;;;;;;21.23;12.70;;;;;;;;;;5024975;28;20081;-66
2022/10/23 04:58:03;;;;;;;20.55;12.90;;;;;;;;;;5026947;28;20045;-65
2022/10/23 05:00:29;;;;;;;17.73;12.32;;;;;;;;;;5025739;28;20056;-65
2022/10/23 05:02:56;;;;;;;20.08;13.10;;;;;;;;;;5026364;28;20049;-65
2022/10/23 05:05:22;;;;;;;22.20;13.70;;;;;;;;;;5025800;28;20037;-66
2022/10/23 05:07:49;;;;;;;21.88;13.55;;;;;;;;;;5025020;28;20053;-65
2022/10/23 05:10:15;;;;;;;13.20;8.07;;;;;;;;;;5025918;28;20041;-65
2022/10/23 05:12:42;;;;;;;18.88;11.32;;;;;;;;;;5025440;28;20041;-65
2022/10/23 05:15:09;;;;;;;18.95;11.27;;;;;;;;;;5026564;28;20501;-65
2022/10/23 05:17:37;;;;;;;26.05;13.75;;;;;;;;;;5026202;28;20045;-66
2022/10/23 05:20:07;;;;;;;16.88;10.20;;;;;;;;;;5027418;28;20080;-64
2022/10/23 05:22:36;;;;;;;21.90;12.70;;;;;;;;;;5025868;28;20042;-64
2022/10/23 05:25:04;;;;;;;22.30;13.63;;;;;;;;;;5026380;28;20057;-64
2022/10/23 05:27:31;;;;;;;21.30;13.27;;;;;;;;;;5025566;28;20064;-63
2022/10/23 05:29:57;;;;;;;22.10;13.82;;;;;;;;;;5024932;28;20090;-65
2022/10/23 05:32:25;;;;;;;18.45;10.77;;;;;;;;;;5039562;28;20097;-65
2022/10/23 05:34:52;;;;;;;21.50;13.38;;;;;;;;;;5025230;28;20037;-64
2022/10/23 05:37:19;;;;;;;21.23;13.43;;;;;;;;;;5027078;28;20073;-66
2022/10/23 05:39:45;;;;;;;15.43;10.23;;;;;;;;;;5039474;28;20105;-63
2022/10/23 05:42:12;;;;;;;22.85;11.52;;;;;;;;;;5053315;28;21284;-65
2022/10/23 05:44:39;;;;;;;16.35;10.85;;;;;;;;;;5045280;28;20032;-66
2022/10/23 05:47:06;;;;;;;17.13;10.73;;;;;;;;;;5042850;28;20033;-64
2022/10/23 05:49:33;;;;;;;20.55;11.63;;;;;;;;;;5043571;28;20454;-66
2022/10/23 05:51:59;;;;;;;19.08;12.20;;;;;;;;;;5048242;28;20058;-65
2022/10/23 05:54:26;;;;;;;21.60;11.95;;;;;;;;;;5066405;28;20463;-65
2022/10/23 05:56:55;;;;;;;15.38;9.40;;;;;;;;;;5047404;28;20461;-64
2022/10/23 05:59:22;;;;;;;17.02;11.05;;;;;;;;;;5046292;28;20041;-66
2022/10/23 06:01:49;;;;;;;20.23;11.77;;;;;;;;;;5042763;28;20041;-65
2022/10/23 06:04:15;;;;;;;21.88;13.02;;;;;;;;;;5050724;28;20044;-65
2022/10/23 06:06:42;;;;;;;21.15;13.27;;;;;;;;;;5046769;28;20593;-65
2022/10/23 06:09:08;;;;;;;25.33;15.27;;;;;;;;;;5025597;28;20053;-65
2022/10/23 06:11:35;;;;;;;20.90;13.02;;;;;;;;;;5036125;28;20033;-66
2022/10/23 06:14:02;;;;;;;20.05;11.88;;;;;;;;;;5041591;28;20045;-65
2022/10/23 06:16:28;;;;;;;21.48;12.30;;;;;;;;;;5045594;28;20032;-65
2022/10/23 06:18:56;;;;;;;21.85;12.90;;;;;;;;;;5052595;28;20100;-69
2022/10/23 06:21:22;;;;;;;21.35;12.93;;;;;;;;;;5034607;28;20041;-65
2022/10/23 06:23:49;;;;;;;22.50;13.20;;;;;;;;;;5025834;28;20319;-65
2022/10/23 06:26:17;;;;;;;18.48;11.27;;;;;;;;;;5024840;28;20184;-64
2022/10/23 06:28:44;;;;;;;16.67;10.32;;;;;;;;;;5024666;28;20049;-67
2022/10/23 06:31:12;;;;;;;24.15;12.45;;;;;;;;;;5026295;28;20048;-66
2022/10/23 06:33:38;;;;;;;22.00;13.77;;;;;;;;;;5044376;28;20048;-65
2022/10/23 06:36:07;;;;;;;22.58;12.43;;;;;;;;;;5045533;28;20571;-64
2022/10/23 06:38:36;;;;;;;21.08;12.45;;;;;;;;;;5045311;28;20048;-64
2022/10/23 06:41:03;;;;;;;18.83;10.73;;;;;;;;;;5044755;28;20041;-63
2022/10/23 06:43:29;;;;;;;21.23;11.65;;;;;;;;;;5044453;28;20132;-65
2022/10/23 06:45:56;;;;;;;21.98;12.90;;;;;;;;;;5045364;28;20041;-64
2022/10/23 06:48:22;;;;;;;21.92;12.40;;;;;;;;;;5044069;28;20048;-64
2022/10/23 06:50:49;;;;;;;20.30;12.20;;;;;;;;;;5044186;28;20409;-65
2022/10/23 06:53:15;;;;;;;16.88;10.75;;;;;;;;;;5045139;28;20103;-64
2022/10/23 06:55:42;;;;;;;19.88;10.40;;;;;;;;;;5045802;28;20841;-64
2022/10/23 06:58:09;;;;;;;16.38;9.05;;;;;;;;;;5048214;28;20048;-67
2022/10/23 07:00:38;;;;;;;15.25;8.20;;;;;;;;;;5047646;28;20046;-64
2022/10/23 07:03:05;;;;;;;16.70;7.03;;;;;;;;;;5051002;28;20256;-64
2022/10/23 07:05:32;;;;;;;14.10;7.40;;;;;;;;;;5049275;28;20397;-64
2022/10/23 07:07:59;;;;;;;18.60;9.48;;;;;;;;;;5050205;28;20044;-64
2022/10/23 07:10:26;;;;;;;18.20;10.38;;;;;;;;;;5046221;28;20064;-66
2022/10/23 07:12:53;;;;;;;20.10;11.15;;;;;;;;;;5048450;28;20037;-64
2022/10/23 07:15:19;;;;;;;18.67;9.50;;;;;;;;;;5047768;28;20033;-63
2022/10/23 07:17:46;;;;;;;17.65;9.65;;;;;;;;;;5048503;28;20032;-64
2022/10/23 07:20:13;;;;;;;18.70;10.70;;;;;;;;;;5055101;28;20040;-63
2022/10/23 07:22:40;;;;;;;20.48;9.90;;;;;;;;;;5046776;28;20068;-63
2022/10/23 07:25:07;;;;;;;18.85;10.75;;;;;;;;;;5049472;28;20051;-63
2022/10/23 07:27:37;;;;;;;18.27;9.15;;;;;;;;;;5047915;28;20106;-63
2022/10/23 07:30:03;;;;;;;20.50;11.25;;;;;;;;;;5047361;28;20402;-64
2022/10/23 07:32:30;;;;;;;16.05;8.75;;;;;;;;;;5045715;28;20047;-66
2022/10/23 07:34:57;;;;;;;17.85;8.32;;;;;;;;;;5050126;28;20041;-63
2022/10/23 07:37:23;;;;;;;8.60;5.13;;;;;;;;;;5049878;28;20048;-64
2022/10/23 07:39:50;;;;;;;16.60;9.73;;;;;;;;;;5048811;28;20043;-64
2022/10/23 07:42:16;;;;;;;16.38;7.32;;;;;;;;;;5049923;28;20052;-65
2022/10/23 07:44:43;;;;;;;17.27;9.10;;;;;;;;;;5048163;28;20219;-64
2022/10/23 07:47:10;;;;;;;15.02;8.52;;;;;;;;;;5048672;28;20808;-63
2022/10/23 07:49:36;;;;;;;17.77;9.43;;;;;;;;;;5047301;28;20139;-64
2022/10/23 07:52:04;;;;;;;13.90;8.18;;;;;;;;;;5049764;28;20056;-65
2022/10/23 07:54:31;;;;;;;16.17;8.95;;;;;;;;;;5047571;28;21824;-65
2022/10/23 07:56:59;;;;;;;18.00;9.98;;;;;;;;;;5045352;28;20086;-65
2022/10/23 07:59:26;;;;;;;15.13;8.55;;;;;;;;;;5047240;28;20099;-65
2022/10/23 08:01:56;;;;;;;17.13;10.13;;;;;;;;;;5048945;28;20062;-64
2022/10/23 08:04:23;;;;;;;17.40;9.43;;;;;;;;;;5049121;28;20036;-64
2022/10/23 08:06:50;;;;;;;16.88;9.00;;;;;;;;;;5048835;28;20041;-64
2022/10/23 08:09:17;;;;;;;16.40;9.82;;;;;;;;;;5048599;28;22262;-65
2022/10/23 08:11:43;;;;;;;15.90;8.02;;;;;;;;;;5045537;28;20155;-63
2022/10/23 08:14:10;;;;;;;15.52;8.85;;;;;;;;;;5046167;28;20044;-64
2022/10/23 08:16:38;;;;;;;23.65;13.40;;;;;;;;;;5047686;28;20090;-64
2022/10/23 08:19:06;;;;;;;20.80;9.00;;;;;;;;;;5048613;28;20044;-63
2022/10/23 08:21:33;;;;;;;24.67;13.52;;;;;;;;;;5046514;28;20143;-64
2022/10/23 08:24:00;;;;;;;28.55;13.48;;;;;;;;;;5049463;28;20083;-64
2022/10/23 08:26:30;;;;;;;24.98;13.77;;;;;;;;;;5047907;28;20047;-64
2022/10/23 08:29:00;;;;;;;24.35;13.50;;;;;;;;;;5047930;28;20045;-64
2022/10/23 08:31:30;;;;;;;21.25;12.07;;;;;;;;;;5046576;28;20055;-65
2022/10/23 08:33:57;;;;;;;20.02;11.32;;;;;;;;;;5046419;28;20040;-63
2022/10/23 08:36:27;;;;;;;25.70;12.85;;;;;;;;;;5046804;28;20037;-64
2022/10/23 08:38:54;;;;;;;22.25;13.48;;;;;;;;;;5046527;28;20135;-65
2022/10/23 08:41:27;;;;;;;25.48;12.68;;;;;;;;;;5044402;28;20084;-64
2022/10/23 08:44:17;;;;;;;21.45;12.18;;;;;;;;;;5046634;28;20082;-63
2022/10/23 08:46:47;;;;;;;19.92;12.00;;;;;;;;;;5041003;28;20040;-64
2022/10/23 08:49:22;;;;;;;24.38;13.30;;;;;;;;;;5046717;28;20120;-64
2022/10/23 08:51:50;;;;;;;22.10;11.75;;;;;;;;;;5045638;28;20115;-64
2022/10/23 08:54:17;;;;;;;23.05;11.50;;;;;;;;;;5046430;28;20215;-64
2022/10/23 08:56:49;;;;;;;22.77;12.27;;;;;;;;;;5045761;28;20508;-63
2022/10/23 08:59:21;;;;;;;24.35;10.55;;;;;;;;;;5045990;28;20139;-64
2022/10/23 09:01:58;;;;;;;19.55;10.32;;;;;;;;;;5046766;28;20448;-64
2022/10/23 09:04:24;;;;;;;19.48;11.25;;;;;;;;;;5045768;28;20053;-64
2022/10/23 09:07:00;;;;;;;23.63;12.65;;;;;;;;;;5046922;28;20136;-64
2022/10/23 09:09:32;;;;;;;24.92;12.88;;;;;;;;;;5045455;28;20079;-64
2022/10/23 09:12:02;;;;;;;25.20;13.15;;;;;;;;;;5045475;28;20045;-64
2022/10/23 09:14:47;;;;;;;22.10;12.45;;;;;;;;;;5045332;28;20839;-64
2022/10/23 09:17:23;;;;;;;22.65;11.80;;;;;;;;;;5041753;28;20039;-64
2022/10/23 09:19:53;;;;;;;19.90;11.25;;;;;;;;;;5044461;28;20044;-63
2022/10/23 09:22:20;;;;;;;15.50;7.75;;;;;;;;;;5044791;28;20130;-64
2022/10/23 09:24:47;;;;;;;19.73;11.48;;;;;;;;;;5047532;28;20127;-63
2022/10/23 09:27:17;;;;;;;23.10;11.48;;;;;;;;;;5051132;28;20037;-63
2022/10/23 09:29:50;;;;;;;23.38;11.18;;;;;;;;;;5044741;28;20048;-64
2022/10/23 09:32:16;;;;;;;20.03;10.97;;;;;;;;;;5048047;28;20083;-63
2022/10/23 09:34:53;;;;;;;23.88;11.70;;;;;;;;;;5033963;28;20095;-64
2022/10/23 09:37:22;;;;;;;20.50;10.75;;;;;;;;;;5041333;28;20046;-64
2022/10/23 09:39:48;;;;;;;22.63;12.65;;;;;;;;;;5045367;28;20041;-64
2022/10/23 09:42:22;;;;;;;23.75;11.60;;;;;;;;;;5047065;28;20049;-64
2022/10/23 09:44:50;;;;;;;18.08;10.15;;;;;;;;;;5043389;28;20043;-64
2022/10/23 09:47:19;;;;;;;19.25;10.82;;;;;;;;;;5046288;28;20045;-64
2022/10/23 09:49:50;;;;;;;23.58;11.68;;;;;;;;;;5046075;28;20052;-65
2022/10/23 09:52:17;;;;;;;24.02;12.57;;;;;;;;;;5046452;28;20052;-64
2022/10/23 09:55:09;;;;;;;19.77;11.10;;;;;;;;;;5026316;28;20037;-65
2022/10/23 09:57:43;;;;;;;22.20;12.00;;;;;;;;;;5015716;28;20042;-65
2022/10/23 10:00:13;;;;;;;24.98;12.00;;;;;;;;;;5025615;28;20183;-65
2022/10/23 10:02:41;;;;;;;25.23;11.48;;;;;;;;;;5037119;28;20036;-62
2022/10/23 10:05:22;;;;;;;21.33;12.80;;;;;;;;;;5046152;28;20762;-63
2022/10/23 10:08:12;;;;;;;23.48;12.35;;;;;;;;;;5044965;28;20124;-64
2022/10/23 10:10:47;;;;;;;25.15;13.23;;;;;;;;;;5036405;28;20067;-65
2022/10/23 10:13:38;;;;;;;26.48;12.98;;;;;;;;;;5045822;28;20127;-63
2022/10/23 10:16:14;;;;;;;19.70;10.57;;;;;;;;;;5028902;28;20041;-64
2022/10/23 10:18:43;;;;;;;16.60;10.23;;;;;;;;;;5045434;28;20571;-64
2022/10/23 10:21:09;;;;;;;22.08;11.38;;;;;;;;;;5044555;28;20047;-64
2022/10/23 10:23:42;;;;;;;21.85;12.05;;;;;;;;;;5045043;28;20036;-64
2022/10/23 10:26:21;;;;;;;23.92;12.10;;;;;;;;;;5045118;28;20036;-64
2022/10/23 10:28:48;;;;;;;16.88;9.68;;;;;;;;;;5043886;28;20056;-64
2022/10/23 10:31:14;;;;;;;20.10;10.02;;;;;;;;;;5047343;28;20035;-64
2022/10/23 10:33:47;;;;;;;18.80;10.43;;;;;;;;;;5049223;28;20037;-65
2022/10/23 10:36:19;;;;;;;22.30;11.52;;;;;;;;;;5049053;28;20055;-65
2022/10/23 10:38:50;;;;;;;23.48;10.70;;;;;;;;;;5048228;28;20068;-65
2022/10/23 10:41:34;;;;;;;16.55;8.93;;;;;;;;;;5049431;28;20394;-64
2022/10/23 10:44:09;;;;;;;20.05;10.48;;;;;;;;;;5048811;28;20051;-65
2022/10/23 10:46:39;;;;;;;14.38;7.57;;;;;;;;;;5047219;28;20060;-64
2022/10/23 10:49:24;;;;;;;18.30;9.50;;;;;;;;;;5049665;28;20053;-65
2022/10/23 10:52:14;;;;;;;16.98;8.32;;;;;;;;;;5047027;28;20068;-67
2022/10/23 10:54:59;;;;;;;11.02;6.00;;;;;;;;;;5041412;28;20044;-64
2022/10/23 10:57:33;;;;;;;11.57;6.00;;;;;;;;;;5049403;28;20151;-65
2022/10/23 11:00:27;;;;;;;11.65;6.07;;;;;;;;;;5049078;28;20076;-64
2022/10/23 11:02:53;;;;;;;;;;;;;;;;;;5046979;28;20048;-63
2022/10/23 11:05:25;;;;;;;10.52;5.57;;;;;;;;;;5049298;28;19920;-65
2022/10/23 11:07:56;;;;;;;7.85;3.65;;;;;;;;;;5047926;28;20512;-65
2022/10/23 11:10:23;;;;;;;11.98;6.57;;;;;;;;;;5048632;28;20106;-65
2022/10/23 11:12:50;;;;;;;17.50;7.15;;;;;;;;;;5048720;28;20045;-64
2022/10/23 11:15:26;;;;;;;13.77;7.47;;;;;;;;;;5048869;28;20085;-63
2022/10/23 11:17:58;;;;;;;14.63;7.72;;;;;;;;;;5046163;28;20140;-64
2022/10/23 11:20:27;;;;;;;13.93;7.85;;;;;;;;;;5047032;28;20033;-62
2022/10/23 11:23:03;;;;;;;18.33;8.77;;;;;;;;;;5048674;28;20040;-65
2022/10/23 11:25:48;;;;;;;9.48;5.68;;;;;;;;;;5047461;28;20045;-66
2022/10/23 11:28:33;;;;;;;19.42;9.27;;;;;;;;;;5048398;28;20505;-63
2022/10/23 11:31:09;;;;;;;20.13;9.57;;;;;;;;;;5049859;28;20051;-63
2022/10/23 11:33:38;;;;;;;16.85;9.73;;;;;;;;;;5047240;28;20553;-65
2022/10/23 11:36:13;;;;;;;15.73;9.65;;;;;;;;;;5047176;28;20064;-65
2022/10/23 11:38:40;;;;;;;24.75;11.40;;;;;;;;;;5048566;28;20040;-64
2022/10/23 11:41:17;;;;;;;21.52;11.02;;;;;;;;;;5049068;28;20048;-65
2022/10/23 11:43:52;;;;;;;24.27;10.30;;;;;;;;;;5049440;28;20040;-63
2022/10/23 11:46:24;;;;;;;24.67;11.65;;;;;;;;;;5047914;28;20048;-65
2022/10/23 11:48:51;;;;;;;23.05;12.23;;;;;;;;;;5048239;28;20407;-64
2022/10/23 11:51:30;;;;;;;24.50;11.43;;;;;;;;;;5049096;28;20040;-62
2022/10/23 11:54:26;;;;;;;23.52;12.57;;;;;;;;;;5047898;28;20044;-63
2022/10/23 11:56:56;;;;;;;20.20;10.40;;;;;;;;;;5039808;28;20419;-63
2022/10/23 11:59:29;;;;;;;26.15;11.88;;;;;;;;;;5046365;28;20062;-64
2022/10/23 12:01:57;;;;;;;27.08;14.68;;;;;;;;;;5048154;28;20116;-63
2022/10/23 12:04:26;;;;;;;22.10;12.65;;;;;;;;;;5046702;28;20029;-63
2022/10/23 12:06:55;;;;;;;28.00;13.32;;;;;;;;;;5047034;28;20040;-64
2022/10/23 12:09:24;;;;;;;29.00;14.00;;;;;;;;;;5048406;28;20064;-63
2022/10/23 12:12:13;;;;;;;21.67;12.60;;;;;;;;;;5047793;28;20047;-62
2022/10/23 12:14:45;;;;;;;23.92;13.20;;;;;;;;;;5046695;28;20132;-63
2022/10/23 12:17:23;;;;;;;23.67;12.77;;;;;;;;;;5046622;28;20440;-64
2022/10/23 12:19:52;;;;;;;29.05;13.15;;;;;;;;;;5046621;28;20041;-64
2022/10/23 12:22:20;;;;;;;24.08;13.07;;;;;;;;;;5047163;28;20036;-63
2022/10/23 12:25:00;;;;;;;29.10;13.85;;;;;;;;;;5026435;28;20448;-65
2022/10/23 12:27:38;;;;;;;26.20;13.73;;;;;;;;;;5043456;28;20036;-64
2022/10/23 12:30:24;;;;;;;27.63;13.85;;;;;;;;;;5048119;28;20422;-64
2022/10/23 12:33:05;;;;;;;23.85;13.02;;;;;;;;;;5046498;28;20060;-65
2022/10/23 12:35:46;;;;;;;12.20;6.93;;;;;;;;;;5046703;28;20914;-65
2022/10/23 12:38:16;;;;;;;24.38;14.07;;;;;;;;;;5048753;28;20037;-65
2022/10/23 12:40:50;;;;;;;24.92;12.85;;;;;;;;;;5046634;28;20120;-65
2022/10/23 12:43:29;;;;;;;22.17;12.45;;;;;;;;;;5045780;28;20037;-65
2022/10/23 12:45:57;;;;;;;21.27;12.05;;;;;;;;;;5045601;28;20139;-64
2022/10/23 12:48:24;;;;;;;32.75;13.50;;;;;;;;;;5046346;28;20041;-65
2022/10/23 12:50:55;;;;;;;26.10;13.70;;;;;;;;;;5044863;28;20501;-65
2022/10/23 12:53:22;;;;;;;25.80;13.30;;;;;;;;;;5045348;28;20063;-65
2022/10/23 12:55:48;;;;;;;22.48;10.82;;;;;;;;;;5046346;28;20047;-64
2022/10/23 12:58:19;;;;;;;27.25;13.95;;;;;;;;;;5047077;28;20396;-65
2022/10/23 13:00:53;;;;;;;26.92;13.82;;;;;;;;;;5044168;28;20036;-65
2022/10/23 13:03:21;;;;;;;25.40;13.43;;;;;;;;;;5045282;28;20044;-66
2022/10/23 13:05:49;;;;;;;41.85;8.05;;;;;;;;;;5046235;28;20500;-64
2022/10/23 13:08:16;;;;;;;28.05;14.65;;;;;;;;;;5051901;28;20728;-64
2022/10/23 13:10:43;;;;;;;24.85;13.48;;;;;;;;;;5063514;28;20040;-65
2022/10/23 13:13:12;;;;;;;21.75;11.73;;;;;;;;;;5046530;28;20032;-65
2022/10/23 13:15:39;;;;;;;24.75;12.57;;;;;;;;;;5044935;28;20041;-65
2022/10/23 13:18:07;;;;;;;28.73;14.20;;;;;;;;;;5048209;28;20063;-64
2022/10/23 13:20:36;;;;;;;29.67;13.85;;;;;;;;;;5047277;28;20044;-64
2022/10/23 13:23:11;;;;;;;28.88;13.93;;;;;;;;;;5047340;28;20120;-64
2022/10/23 13:25:38;;;;;;;28.33;14.20;;;;;;;;;;5045685;28;20385;-63
2022/10/23 13:28:07;;;;;;;28.75;13.07;;;;;;;;;;5046526;28;20061;-64
2022/10/23 13:30:40;;;;;;;22.75;11.95;;;;;;;;;;5044660;28;20497;-62
2022/10/23 13:33:23;;;;;;;24.65;12.32;;;;;;;;;;5047376;28;20033;-63
2022/10/23 13:36:00;;;;;;;24.57;12.97;;;;;;;;;;5026374;28;20042;-64
2022/10/23 13:38:31;;;;;;;27.60;13.82;;;;;;;;;;5026083;28;20349;-64
2022/10/23 13:40:58;;;;;;;19.52;11.05;;;;;;;;;;5026903;28;20163;-63
2022/10/23 13:43:26;;;;;;;20.15;9.82;;;;;;;;;;5024774;28;20127;-64
2022/10/23 13:45:53;;;;;;;17.23;8.60;;;;;;;;;;5025476;28;20068;-63
2022/10/23 13:48:20;;;;;;;20.35;10.38;;;;;;;;;;5026533;28;20061;-64
2022/10/23 13:50:47;;;;;;;18.35;9.52;;;;;;;;;;5026794;28;20049;-64
2022/10/23 13:53:13;;;;;;;17.70;9.38;;;;;;;;;;5026433;28;20124;-64
2022/10/23 13:55:41;;;;;;;21.27;10.43;;;;;;;;;;5025995;28;20191;-64
2022/10/23 13:58:08;;;;;;;20.25;10.57;;;;;;;;;;5027059;28;20041;-64
2022/10/23 14:00:35;;;;;;;15.82;8.98;;;;;;;;;;5024792;28;20093;-64
2022/10/23 14:03:01;;;;;;;17.40;9.55;;;;;;;;;;5025443;28;20052;-64
2022/10/23 14:05:28;;;;;;;20.15;9.50;;;;;;;;;;5027138;28;20505;-64
2022/10/23 14:07:54;;;;;;;16.02;7.57;;;;;;;;;;5028697;28;20116;-64
2022/10/23 14:10:22;;;;;;;13.60;7.85;;;;;;;;;;5030585;28;20892;-65
2022/10/23 14:12:53;;;;;;;17.17;8.10;;;;;;;;;;5030550;28;20037;-63
2022/10/23 14:15:20;;;;;;;21.23;9.80;;;;;;;;;;5029598;28;20079;-65
2022/10/23 14:17:47;;;;;;;13.82;6.93;;;;;;;;;;5030357;28;20440;-65
2022/10/23 14:20:14;;;;;;;12.95;7.03;;;;;;;;;;5029218;28;20482;-67
2022/10/23 14:22:40;;;;;;;18.08;8.73;;;;;;;;;;5028832;28;20045;-65
2022/10/23 14:25:07;;;;;;;16.88;7.90;;;;;;;;;;5035829;28;20061;-64
2022/10/23 14:27:34;;;;;;;14.05;6.63;;;;;;;;;;5046706;28;20078;-64
2022/10/23 14:30:00;;;;;;;14.48;7.63;;;;;;;;;;5049375;28;20060;-62
2022/10/23 14:32:27;;;;;;;15.93;7.93;;;;;;;;;;5048545;28;20040;-65
2022/10/23 14:34:54;;;;;;;13.43;7.40;;;;;;;;;;5048800;28;21340;-64
2022/10/23 14:37:21;;;;;;;12.90;6.20;;;;;;;;;;5046995;28;20041;-66
2022/10/23 14:39:48;;;;;;;8.02;3.47;;;;;;;;;;5048949;28;20402;-64